sensor_id;sensor_type;location;lat;lon;timestamp;P1;durP1;ratioP1;P2;durP2;ratioP2
19026;SDS011;9646;52.034;5.554;2022-09-06T00:00:41;1.80;;;1.60;;
19026;SDS011;9646;52.034;5.554;2022-09-06T00:03:08;3.38;;;1.75;;
19026;SDS011;9646;52.034;5.554;2022-09-06T00:05:36;2.65;;;1.75;;
19026;SDS011;9646;52.034;5.554;2022-09-06T00:08:05;1.45;;;1.35;;
19026;SDS011;9646;52.034;5.554;2022-09-06T00:10:33;4.13;;;1.65;;
19026;SDS011;9646;52.034;5.554;2022-09-06T00:13:02;3.55;;;1.63;;
19026;SDS011;9646;52.034;5.554;2022-09-06T00:15:29;2.47;;;1.50;;
19026;SDS011;9646;52.034;5.554;2022-09-06T00:17:57;1.45;;;1.20;;
19026;SDS011;9646;52.034;5.554;2022-09-06T00:20:24;2.95;;;2.00;;
19026;SDS011;9646;52.034;5.554;2022-09-06T00:22:55;3.25;;;2.83;;
19026;SDS011;9646;52.034;5.554;2022-09-06T00:25:22;3.47;;;3.08;;
19026;SDS011;9646;52.034;5.554;2022-09-06T00:27:53;4.00;;;2.92;;
19026;SDS011;9646;52.034;5.554;2022-09-06T00:30:20;3.05;;;2.10;;
19026;SDS011;9646;52.034;5.554;2022-09-06T00:32:47;3.17;;;2.40;;
19026;SDS011;9646;52.034;5.554;2022-09-06T00:35:17;2.92;;;2.47;;
19026;SDS011;9646;52.034;5.554;2022-09-06T00:37:44;5.18;;;2.53;;
19026;SDS011;9646;52.034;5.554;2022-09-06T00:40:11;5.95;;;3.55;;
19026;SDS011;9646;52.034;5.554;2022-09-06T00:42:38;4.07;;;3.05;;
19026;SDS011;9646;52.034;5.554;2022-09-06T00:45:08;2.95;;;2.50;;
19026;SDS011;9646;52.034;5.554;2022-09-06T00:47:36;2.92;;;2.40;;
19026;SDS011;9646;52.034;5.554;2022-09-06T00:50:05;3.90;;;2.50;;
19026;SDS011;9646;52.034;5.554;2022-09-06T00:52:33;2.65;;;2.38;;
19026;SDS011;9646;52.034;5.554;2022-09-06T00:55:00;3.40;;;2.28;;
19026;SDS011;9646;52.034;5.554;2022-09-06T00:57:28;3.97;;;2.88;;
19026;SDS011;9646;52.034;5.554;2022-09-06T00:59:56;6.43;;;3.22;;
19026;SDS011;9646;52.034;5.554;2022-09-06T01:02:25;4.72;;;3.25;;
19026;SDS011;9646;52.034;5.554;2022-09-06T01:04:52;5.25;;;3.00;;
19026;SDS011;9646;52.034;5.554;2022-09-06T01:07:23;4.22;;;2.80;;
19026;SDS011;9646;52.034;5.554;2022-09-06T01:09:57;3.78;;;2.92;;
19026;SDS011;9646;52.034;5.554;2022-09-06T01:12:30;5.25;;;2.60;;
19026;SDS011;9646;52.034;5.554;2022-09-06T01:15:03;5.15;;;2.80;;
19026;SDS011;9646;52.034;5.554;2022-09-06T01:17:36;3.03;;;2.42;;
19026;SDS011;9646;52.034;5.554;2022-09-06T01:20:13;3.83;;;3.15;;
19026;SDS011;9646;52.034;5.554;2022-09-06T01:22:51;3.22;;;2.92;;
19026;SDS011;9646;52.034;5.554;2022-09-06T01:25:32;6.50;;;3.67;;
19026;SDS011;9646;52.034;5.554;2022-09-06T01:28:05;3.47;;;2.42;;
19026;SDS011;9646;52.034;5.554;2022-09-06T01:30:36;2.50;;;2.10;;
19026;SDS011;9646;52.034;5.554;2022-09-06T01:33:08;4.50;;;2.05;;
19026;SDS011;9646;52.034;5.554;2022-09-06T01:35:39;3.40;;;2.40;;
19026;SDS011;9646;52.034;5.554;2022-09-06T01:38:06;3.83;;;2.35;;
19026;SDS011;9646;52.034;5.554;2022-09-06T01:40:34;3.20;;;2.58;;
19026;SDS011;9646;52.034;5.554;2022-09-06T01:43:01;3.33;;;2.47;;
19026;SDS011;9646;52.034;5.554;2022-09-06T01:45:32;3.45;;;2.63;;
19026;SDS011;9646;52.034;5.554;2022-09-06T01:48:05;2.95;;;2.63;;
19026;SDS011;9646;52.034;5.554;2022-09-06T01:50:45;5.00;;;2.90;;
19026;SDS011;9646;52.034;5.554;2022-09-06T01:53:18;1.75;;;1.65;;
19026;SDS011;9646;52.034;5.554;2022-09-06T01:55:48;2.67;;;1.85;;
19026;SDS011;9646;52.034;5.554;2022-09-06T01:58:22;2.13;;;1.92;;
19026;SDS011;9646;52.034;5.554;2022-09-06T02:00:58;4.22;;;2.53;;
19026;SDS011;9646;52.034;5.554;2022-09-06T02:03:27;3.70;;;2.50;;
19026;SDS011;9646;52.034;5.554;2022-09-06T02:05:58;3.15;;;2.58;;
19026;SDS011;9646;52.034;5.554;2022-09-06T02:08:30;4.63;;;2.60;;
19026;SDS011;9646;52.034;5.554;2022-09-06T02:10:59;3.58;;;2.20;;
19026;SDS011;9646;52.034;5.554;2022-09-06T02:13:28;4.05;;;2.70;;
19026;SDS011;9646;52.034;5.554;2022-09-06T02:15:58;2.20;;;1.92;;
19026;SDS011;9646;52.034;5.554;2022-09-06T02:18:27;3.97;;;1.73;;
19026;SDS011;9646;52.034;5.554;2022-09-06T02:20:56;2.67;;;2.03;;
19026;SDS011;9646;52.034;5.554;2022-09-06T02:23:24;3.72;;;2.20;;
19026;SDS011;9646;52.034;5.554;2022-09-06T02:25:52;3.35;;;2.50;;
19026;SDS011;9646;52.034;5.554;2022-09-06T02:28:19;3.22;;;2.28;;
19026;SDS011;9646;52.034;5.554;2022-09-06T02:30:48;3.17;;;2.20;;
19026;SDS011;9646;52.034;5.554;2022-09-06T02:33:17;2.88;;;2.53;;
19026;SDS011;9646;52.034;5.554;2022-09-06T02:35:45;2.53;;;1.90;;
19026;SDS011;9646;52.034;5.554;2022-09-06T02:38:15;2.58;;;2.10;;
19026;SDS011;9646;52.034;5.554;2022-09-06T02:40:56;3.10;;;2.40;;
19026;SDS011;9646;52.034;5.554;2022-09-06T02:43:24;3.00;;;2.70;;
19026;SDS011;9646;52.034;5.554;2022-09-06T02:45:51;2.97;;;2.42;;
19026;SDS011;9646;52.034;5.554;2022-09-06T02:48:19;3.38;;;2.70;;
19026;SDS011;9646;52.034;5.554;2022-09-06T02:50:46;3.67;;;2.70;;
19026;SDS011;9646;52.034;5.554;2022-09-06T02:53:13;3.30;;;2.60;;
19026;SDS011;9646;52.034;5.554;2022-09-06T02:55:41;4.47;;;2.83;;
19026;SDS011;9646;52.034;5.554;2022-09-06T02:58:09;3.33;;;2.60;;
19026;SDS011;9646;52.034;5.554;2022-09-06T03:00:36;4.25;;;3.28;;
19026;SDS011;9646;52.034;5.554;2022-09-06T03:03:03;3.38;;;2.97;;
19026;SDS011;9646;52.034;5.554;2022-09-06T03:05:32;6.40;;;3.60;;
19026;SDS011;9646;52.034;5.554;2022-09-06T03:07:59;4.38;;;2.95;;
19026;SDS011;9646;52.034;5.554;2022-09-06T03:10:26;12.23;;;3.40;;
19026;SDS011;9646;52.034;5.554;2022-09-06T03:12:53;3.30;;;2.85;;
19026;SDS011;9646;52.034;5.554;2022-09-06T03:15:20;3.28;;;2.58;;
19026;SDS011;9646;52.034;5.554;2022-09-06T03:17:47;4.63;;;3.10;;
19026;SDS011;9646;52.034;5.554;2022-09-06T03:20:15;4.93;;;3.00;;
19026;SDS011;9646;52.034;5.554;2022-09-06T03:22:43;3.42;;;2.05;;
19026;SDS011;9646;52.034;5.554;2022-09-06T03:25:10;4.30;;;2.65;;
19026;SDS011;9646;52.034;5.554;2022-09-06T03:27:37;3.40;;;3.10;;
19026;SDS011;9646;52.034;5.554;2022-09-06T03:30:05;3.92;;;3.30;;
19026;SDS011;9646;52.034;5.554;2022-09-06T03:32:32;3.38;;;3.08;;
19026;SDS011;9646;52.034;5.554;2022-09-06T03:34:59;4.55;;;2.80;;
19026;SDS011;9646;52.034;5.554;2022-09-06T03:37:26;3.58;;;2.95;;
19026;SDS011;9646;52.034;5.554;2022-09-06T03:39:55;3.25;;;2.92;;
19026;SDS011;9646;52.034;5.554;2022-09-06T03:42:22;3.50;;;3.20;;
19026;SDS011;9646;52.034;5.554;2022-09-06T03:44:50;3.40;;;3.10;;
19026;SDS011;9646;52.034;5.554;2022-09-06T03:47:17;5.10;;;3.40;;
19026;SDS011;9646;52.034;5.554;2022-09-06T03:49:44;4.07;;;3.65;;
19026;SDS011;9646;52.034;5.554;2022-09-06T03:52:11;5.85;;;4.35;;
19026;SDS011;9646;52.034;5.554;2022-09-06T03:54:39;6.10;;;4.10;;
19026;SDS011;9646;52.034;5.554;2022-09-06T03:57:07;4.65;;;4.25;;
19026;SDS011;9646;52.034;5.554;2022-09-06T03:59:34;4.35;;;3.95;;
19026;SDS011;9646;52.034;5.554;2022-09-06T04:02:01;3.95;;;3.35;;
19026;SDS011;9646;52.034;5.554;2022-09-06T04:04:28;3.85;;;3.30;;
19026;SDS011;9646;52.034;5.554;2022-09-06T04:06:55;6.78;;;4.15;;
19026;SDS011;9646;52.034;5.554;2022-09-06T04:09:22;5.70;;;3.63;;
19026;SDS011;9646;52.034;5.554;2022-09-06T04:11:49;4.53;;;3.78;;
19026;SDS011;9646;52.034;5.554;2022-09-06T04:14:17;4.18;;;3.40;;
19026;SDS011;9646;52.034;5.554;2022-09-06T04:16:44;4.50;;;3.25;;
19026;SDS011;9646;52.034;5.554;2022-09-06T04:19:11;5.18;;;3.40;;
19026;SDS011;9646;52.034;5.554;2022-09-06T04:21:39;3.33;;;3.03;;
19026;SDS011;9646;52.034;5.554;2022-09-06T04:24:06;6.35;;;2.90;;
19026;SDS011;9646;52.034;5.554;2022-09-06T04:26:33;5.82;;;3.45;;
19026;SDS011;9646;52.034;5.554;2022-09-06T04:29:00;5.07;;;3.17;;
19026;SDS011;9646;52.034;5.554;2022-09-06T04:31:28;4.63;;;3.40;;
19026;SDS011;9646;52.034;5.554;2022-09-06T04:33:55;3.70;;;3.25;;
19026;SDS011;9646;52.034;5.554;2022-09-06T04:36:23;4.90;;;2.75;;
19026;SDS011;9646;52.034;5.554;2022-09-06T04:38:50;5.93;;;2.97;;
19026;SDS011;9646;52.034;5.554;2022-09-06T04:41:17;3.45;;;2.95;;
19026;SDS011;9646;52.034;5.554;2022-09-06T04:43:45;3.75;;;3.25;;
19026;SDS011;9646;52.034;5.554;2022-09-06T04:46:14;2.97;;;2.67;;
19026;SDS011;9646;52.034;5.554;2022-09-06T04:48:44;3.47;;;3.17;;
19026;SDS011;9646;52.034;5.554;2022-09-06T04:51:11;3.47;;;3.00;;
19026;SDS011;9646;52.034;5.554;2022-09-06T04:53:38;4.00;;;3.60;;
19026;SDS011;9646;52.034;5.554;2022-09-06T04:56:05;4.40;;;3.88;;
19026;SDS011;9646;52.034;5.554;2022-09-06T04:58:32;6.25;;;4.22;;
19026;SDS011;9646;52.034;5.554;2022-09-06T05:01:00;4.28;;;3.83;;
19026;SDS011;9646;52.034;5.554;2022-09-06T05:03:27;5.10;;;3.78;;
19026;SDS011;9646;52.034;5.554;2022-09-06T05:06:03;4.57;;;3.80;;
19026;SDS011;9646;52.034;5.554;2022-09-06T05:08:30;4.43;;;3.75;;
19026;SDS011;9646;52.034;5.554;2022-09-06T05:10:57;5.40;;;3.88;;
19026;SDS011;9646;52.034;5.554;2022-09-06T05:13:24;4.57;;;4.03;;
19026;SDS011;9646;52.034;5.554;2022-09-06T05:15:51;5.07;;;4.57;;
19026;SDS011;9646;52.034;5.554;2022-09-06T05:18:18;4.28;;;3.88;;
19026;SDS011;9646;52.034;5.554;2022-09-06T05:20:49;6.28;;;4.20;;
19026;SDS011;9646;52.034;5.554;2022-09-06T05:23:18;5.13;;;4.63;;
19026;SDS011;9646;52.034;5.554;2022-09-06T05:25:45;5.78;;;4.55;;
19026;SDS011;9646;52.034;5.554;2022-09-06T05:28:12;5.85;;;4.10;;
19026;SDS011;9646;52.034;5.554;2022-09-06T05:30:39;6.45;;;4.72;;
19026;SDS011;9646;52.034;5.554;2022-09-06T05:33:07;7.43;;;4.85;;
19026;SDS011;9646;52.034;5.554;2022-09-06T05:35:34;5.05;;;3.90;;
19026;SDS011;9646;52.034;5.554;2022-09-06T05:38:01;6.57;;;4.38;;
19026;SDS011;9646;52.034;5.554;2022-09-06T05:40:30;6.22;;;4.72;;
19026;SDS011;9646;52.034;5.554;2022-09-06T05:42:57;6.90;;;5.05;;
19026;SDS011;9646;52.034;5.554;2022-09-06T05:45:24;6.38;;;4.38;;
19026;SDS011;9646;52.034;5.554;2022-09-06T05:47:51;4.53;;;4.13;;
19026;SDS011;9646;52.034;5.554;2022-09-06T05:50:18;5.97;;;4.82;;
19026;SDS011;9646;52.034;5.554;2022-09-06T05:52:45;5.00;;;4.07;;
19026;SDS011;9646;52.034;5.554;2022-09-06T05:55:12;4.70;;;3.55;;
19026;SDS011;9646;52.034;5.554;2022-09-06T05:57:40;6.32;;;4.03;;
19026;SDS011;9646;52.034;5.554;2022-09-06T06:00:08;4.38;;;3.88;;
19026;SDS011;9646;52.034;5.554;2022-09-06T06:02:36;5.65;;;3.72;;
19026;SDS011;9646;52.034;5.554;2022-09-06T06:05:03;4.05;;;3.30;;
19026;SDS011;9646;52.034;5.554;2022-09-06T06:07:31;5.78;;;4.05;;
19026;SDS011;9646;52.034;5.554;2022-09-06T06:09:58;3.90;;;3.33;;
19026;SDS011;9646;52.034;5.554;2022-09-06T06:12:25;6.30;;;4.05;;
19026;SDS011;9646;52.034;5.554;2022-09-06T06:14:53;5.72;;;3.85;;
19026;SDS011;9646;52.034;5.554;2022-09-06T06:17:20;4.47;;;4.03;;
19026;SDS011;9646;52.034;5.554;2022-09-06T06:19:47;4.30;;;3.90;;
19026;SDS011;9646;52.034;5.554;2022-09-06T06:22:14;4.95;;;3.70;;
19026;SDS011;9646;52.034;5.554;2022-09-06T06:24:41;5.32;;;3.42;;
19026;SDS011;9646;52.034;5.554;2022-09-06T06:27:08;4.25;;;3.40;;
19026;SDS011;9646;52.034;5.554;2022-09-06T06:29:35;5.22;;;3.58;;
19026;SDS011;9646;52.034;5.554;2022-09-06T06:32:04;3.85;;;2.90;;
19026;SDS011;9646;52.034;5.554;2022-09-06T06:34:31;4.72;;;3.80;;
19026;SDS011;9646;52.034;5.554;2022-09-06T06:36:58;6.03;;;3.47;;
19026;SDS011;9646;52.034;5.554;2022-09-06T06:39:25;3.70;;;2.88;;
19026;SDS011;9646;52.034;5.554;2022-09-06T06:41:52;6.10;;;3.17;;
19026;SDS011;9646;52.034;5.554;2022-09-06T06:44:19;6.78;;;4.97;;
19026;SDS011;9646;52.034;5.554;2022-09-06T06:46:46;5.32;;;4.18;;
19026;SDS011;9646;52.034;5.554;2022-09-06T06:49:15;4.95;;;4.45;;
19026;SDS011;9646;52.034;5.554;2022-09-06T06:51:42;5.55;;;3.85;;
19026;SDS011;9646;52.034;5.554;2022-09-06T06:54:09;3.58;;;3.17;;
19026;SDS011;9646;52.034;5.554;2022-09-06T06:56:36;7.03;;;4.07;;
19026;SDS011;9646;52.034;5.554;2022-09-06T06:59:05;6.05;;;4.82;;
19026;SDS011;9646;52.034;5.554;2022-09-06T07:01:33;5.95;;;4.80;;
19026;SDS011;9646;52.034;5.554;2022-09-06T07:04:00;4.70;;;3.00;;
19026;SDS011;9646;52.034;5.554;2022-09-06T07:06:29;9.13;;;4.70;;
19026;SDS011;9646;52.034;5.554;2022-09-06T07:08:56;6.20;;;4.72;;
19026;SDS011;9646;52.034;5.554;2022-09-06T07:11:24;5.63;;;5.03;;
19026;SDS011;9646;52.034;5.554;2022-09-06T07:13:51;5.80;;;5.20;;
19026;SDS011;9646;52.034;5.554;2022-09-06T07:16:18;4.20;;;3.80;;
19026;SDS011;9646;52.034;5.554;2022-09-06T07:18:49;4.25;;;3.65;;
19026;SDS011;9646;52.034;5.554;2022-09-06T07:21:16;4.93;;;3.35;;
19026;SDS011;9646;52.034;5.554;2022-09-06T07:23:45;6.30;;;4.35;;
19026;SDS011;9646;52.034;5.554;2022-09-06T07:26:13;4.75;;;3.65;;
19026;SDS011;9646;52.034;5.554;2022-09-06T07:28:41;4.55;;;4.03;;
19026;SDS011;9646;52.034;5.554;2022-09-06T07:31:08;5.60;;;4.75;;
19026;SDS011;9646;52.034;5.554;2022-09-06T07:33:35;9.10;;;5.03;;
19026;SDS011;9646;52.034;5.554;2022-09-06T07:36:03;4.15;;;3.38;;
19026;SDS011;9646;52.034;5.554;2022-09-06T07:38:31;4.53;;;3.72;;
19026;SDS011;9646;52.034;5.554;2022-09-06T07:41:00;5.22;;;4.15;;
19026;SDS011;9646;52.034;5.554;2022-09-06T07:43:27;5.10;;;4.60;;
19026;SDS011;9646;52.034;5.554;2022-09-06T07:45:59;5.80;;;4.65;;
19026;SDS011;9646;52.034;5.554;2022-09-06T07:48:26;4.90;;;4.10;;
19026;SDS011;9646;52.034;5.554;2022-09-06T07:50:54;4.38;;;3.97;;
19026;SDS011;9646;52.034;5.554;2022-09-06T07:53:21;3.08;;;2.47;;
19026;SDS011;9646;52.034;5.554;2022-09-06T07:55:48;6.35;;;5.63;;
19026;SDS011;9646;52.034;5.554;2022-09-06T07:58:16;7.80;;;5.00;;
19026;SDS011;9646;52.034;5.554;2022-09-06T08:00:43;6.30;;;5.70;;
19026;SDS011;9646;52.034;5.554;2022-09-06T08:03:10;6.90;;;6.20;;
19026;SDS011;9646;52.034;5.554;2022-09-06T08:05:37;5.10;;;4.28;;
19026;SDS011;9646;52.034;5.554;2022-09-06T08:08:04;7.93;;;5.20;;
19026;SDS011;9646;52.034;5.554;2022-09-06T08:10:31;4.28;;;3.72;;
19026;SDS011;9646;52.034;5.554;2022-09-06T08:12:58;2.13;;;1.90;;
19026;SDS011;9646;52.034;5.554;2022-09-06T08:15:27;4.38;;;3.40;;
19026;SDS011;9646;52.034;5.554;2022-09-06T08:17:55;7.70;;;5.78;;
19026;SDS011;9646;52.034;5.554;2022-09-06T08:20:22;6.53;;;4.03;;
19026;SDS011;9646;52.034;5.554;2022-09-06T08:22:49;6.20;;;4.47;;
19026;SDS011;9646;52.034;5.554;2022-09-06T08:25:16;4.78;;;4.28;;
19026;SDS011;9646;52.034;5.554;2022-09-06T08:27:43;5.07;;;3.83;;
19026;SDS011;9646;52.034;5.554;2022-09-06T08:30:11;3.20;;;2.90;;
19026;SDS011;9646;52.034;5.554;2022-09-06T08:32:39;3.47;;;2.78;;
19026;SDS011;9646;52.034;5.554;2022-09-06T08:35:07;4.60;;;3.75;;
19026;SDS011;9646;52.034;5.554;2022-09-06T08:37:34;3.40;;;3.10;;
19026;SDS011;9646;52.034;5.554;2022-09-06T08:40:01;4.72;;;3.45;;
19026;SDS011;9646;52.034;5.554;2022-09-06T08:42:29;4.90;;;3.75;;
19026;SDS011;9646;52.034;5.554;2022-09-06T08:44:56;5.22;;;4.72;;
19026;SDS011;9646;52.034;5.554;2022-09-06T08:47:26;7.00;;;5.15;;
19026;SDS011;9646;52.034;5.554;2022-09-06T08:49:55;8.32;;;5.75;;
19026;SDS011;9646;52.034;5.554;2022-09-06T08:52:29;5.70;;;5.10;;
19026;SDS011;9646;52.034;5.554;2022-09-06T08:55:05;1.88;;;1.70;;
19026;SDS011;9646;52.034;5.554;2022-09-06T08:57:39;2.58;;;1.73;;
19026;SDS011;9646;52.034;5.554;2022-09-06T09:00:09;4.55;;;4.10;;
19026;SDS011;9646;52.034;5.554;2022-09-06T09:02:41;6.07;;;4.43;;
19026;SDS011;9646;52.034;5.554;2022-09-06T09:05:14;3.58;;;2.63;;
19026;SDS011;9646;52.034;5.554;2022-09-06T09:07:46;4.55;;;3.78;;
19026;SDS011;9646;52.034;5.554;2022-09-06T09:10:16;3.67;;;2.40;;
19026;SDS011;9646;52.034;5.554;2022-09-06T09:12:46;9.82;;;7.07;;
19026;SDS011;9646;52.034;5.554;2022-09-06T09:15:14;7.70;;;6.28;;
19026;SDS011;9646;52.034;5.554;2022-09-06T09:17:42;6.68;;;5.30;;
19026;SDS011;9646;52.034;5.554;2022-09-06T09:20:09;8.05;;;4.88;;
19026;SDS011;9646;52.034;5.554;2022-09-06T09:22:38;9.18;;;7.32;;
19026;SDS011;9646;52.034;5.554;2022-09-06T09:25:06;6.97;;;6.28;;
19026;SDS011;9646;52.034;5.554;2022-09-06T09:27:33;8.55;;;7.65;;
19026;SDS011;9646;52.034;5.554;2022-09-06T09:30:02;4.55;;;4.15;;
19026;SDS011;9646;52.034;5.554;2022-09-06T09:32:32;7.75;;;5.47;;
19026;SDS011;9646;52.034;5.554;2022-09-06T09:35:13;6.80;;;5.80;;
19026;SDS011;9646;52.034;5.554;2022-09-06T09:37:42;10.38;;;6.97;;
19026;SDS011;9646;52.034;5.554;2022-09-06T09:40:13;7.53;;;6.38;;
19026;SDS011;9646;52.034;5.554;2022-09-06T09:42:40;6.95;;;5.80;;
19026;SDS011;9646;52.034;5.554;2022-09-06T09:45:20;6.18;;;5.50;;
19026;SDS011;9646;52.034;5.554;2022-09-06T09:47:48;2.22;;;2.03;;
19026;SDS011;9646;52.034;5.554;2022-09-06T09:50:21;9.20;;;5.60;;
19026;SDS011;9646;52.034;5.554;2022-09-06T09:52:49;6.15;;;5.03;;
19026;SDS011;9646;52.034;5.554;2022-09-06T09:55:17;8.38;;;7.07;;
19026;SDS011;9646;52.034;5.554;2022-09-06T09:57:47;8.70;;;6.13;;
19026;SDS011;9646;52.034;5.554;2022-09-06T10:00:29;8.68;;;6.18;;
19026;SDS011;9646;52.034;5.554;2022-09-06T10:02:57;9.57;;;5.88;;
19026;SDS011;9646;52.034;5.554;2022-09-06T10:05:25;7.20;;;6.45;;
19026;SDS011;9646;52.034;5.554;2022-09-06T10:07:53;8.85;;;6.03;;
19026;SDS011;9646;52.034;5.554;2022-09-06T10:10:22;8.45;;;6.18;;
19026;SDS011;9646;52.034;5.554;2022-09-06T10:13:03;10.50;;;6.63;;
19026;SDS011;9646;52.034;5.554;2022-09-06T10:15:31;8.23;;;5.75;;
19026;SDS011;9646;52.034;5.554;2022-09-06T10:17:59;7.07;;;5.30;;
19026;SDS011;9646;52.034;5.554;2022-09-06T10:20:28;6.80;;;5.07;;
19026;SDS011;9646;52.034;5.554;2022-09-06T10:23:00;5.18;;;3.47;;
19026;SDS011;9646;52.034;5.554;2022-09-06T10:25:36;4.88;;;2.95;;
19026;SDS011;9646;52.034;5.554;2022-09-06T10:28:16;8.85;;;3.70;;
19026;SDS011;9646;52.034;5.554;2022-09-06T10:30:48;3.88;;;2.78;;
19026;SDS011;9646;52.034;5.554;2022-09-06T10:33:21;3.97;;;3.60;;
19026;SDS011;9646;52.034;5.554;2022-09-06T10:35:50;4.57;;;3.95;;
19026;SDS011;9646;52.034;5.554;2022-09-06T10:38:26;5.75;;;4.20;;
19026;SDS011;9646;52.034;5.554;2022-09-06T10:41:09;5.75;;;3.47;;
19026;SDS011;9646;52.034;5.554;2022-09-06T10:43:43;3.55;;;2.20;;
19026;SDS011;9646;52.034;5.554;2022-09-06T10:46:16;3.05;;;2.40;;
19026;SDS011;9646;52.034;5.554;2022-09-06T10:48:45;4.03;;;2.63;;
19026;SDS011;9646;52.034;5.554;2022-09-06T10:51:14;3.75;;;2.63;;
19026;SDS011;9646;52.034;5.554;2022-09-06T10:53:45;6.22;;;4.60;;
19026;SDS011;9646;52.034;5.554;2022-09-06T10:56:14;5.55;;;3.00;;
19026;SDS011;9646;52.034;5.554;2022-09-06T10:58:44;5.55;;;4.05;;
19026;SDS011;9646;52.034;5.554;2022-09-06T11:01:17;5.03;;;2.75;;
19026;SDS011;9646;52.034;5.554;2022-09-06T11:03:45;3.83;;;2.70;;
19026;SDS011;9646;52.034;5.554;2022-09-06T11:06:12;5.05;;;3.08;;
19026;SDS011;9646;52.034;5.554;2022-09-06T11:08:42;4.20;;;2.97;;
19026;SDS011;9646;52.034;5.554;2022-09-06T11:11:14;4.63;;;3.13;;
19026;SDS011;9646;52.034;5.554;2022-09-06T11:13:42;5.00;;;3.53;;
19026;SDS011;9646;52.034;5.554;2022-09-06T11:16:10;4.45;;;3.45;;
19026;SDS011;9646;52.034;5.554;2022-09-06T11:18:40;4.65;;;2.55;;
19026;SDS011;9646;52.034;5.554;2022-09-06T11:21:18;3.65;;;2.30;;
19026;SDS011;9646;52.034;5.554;2022-09-06T11:23:50;4.93;;;2.45;;
19026;SDS011;9646;52.034;5.554;2022-09-06T11:26:29;8.27;;;3.80;;
19026;SDS011;9646;52.034;5.554;2022-09-06T11:28:58;4.70;;;2.45;;
19026;SDS011;9646;52.034;5.554;2022-09-06T11:31:26;5.30;;;3.15;;
19026;SDS011;9646;52.034;5.554;2022-09-06T11:34:05;4.22;;;2.78;;
19026;SDS011;9646;52.034;5.554;2022-09-06T11:36:34;4.35;;;3.03;;
19026;SDS011;9646;52.034;5.554;2022-09-06T11:39:03;5.68;;;3.35;;
19026;SDS011;9646;52.034;5.554;2022-09-06T11:41:32;4.03;;;3.63;;
19026;SDS011;9646;52.034;5.554;2022-09-06T11:44:00;6.40;;;3.97;;
19026;SDS011;9646;52.034;5.554;2022-09-06T11:49:26;4.60;;;2.80;;
19026;SDS011;9646;52.034;5.554;2022-09-06T11:51:53;5.63;;;2.80;;
19026;SDS011;9646;52.034;5.554;2022-09-06T11:54:22;6.78;;;2.42;;
19026;SDS011;9646;52.034;5.554;2022-09-06T11:56:53;5.13;;;3.38;;
19026;SDS011;9646;52.034;5.554;2022-09-06T11:59:29;5.90;;;3.83;;
19026;SDS011;9646;52.034;5.554;2022-09-06T12:01:58;5.40;;;4.47;;
19026;SDS011;9646;52.034;5.554;2022-09-06T12:07:09;6.13;;;3.85;;
19026;SDS011;9646;52.034;5.554;2022-09-06T12:09:36;8.40;;;3.95;;
19026;SDS011;9646;52.034;5.554;2022-09-06T12:12:05;8.43;;;4.43;;
19026;SDS011;9646;52.034;5.554;2022-09-06T12:14:34;7.40;;;3.97;;
19026;SDS011;9646;52.034;5.554;2022-09-06T12:19:53;6.78;;;4.47;;
19026;SDS011;9646;52.034;5.554;2022-09-06T12:25:14;8.70;;;4.32;;
19026;SDS011;9646;52.034;5.554;2022-09-06T12:27:51;7.47;;;4.90;;
19026;SDS011;9646;52.034;5.554;2022-09-06T12:30:29;6.68;;;4.53;;
19026;SDS011;9646;52.034;5.554;2022-09-06T12:32:56;7.65;;;5.05;;
19026;SDS011;9646;52.034;5.554;2022-09-06T12:35:25;7.47;;;4.60;;
19026;SDS011;9646;52.034;5.554;2022-09-06T12:37:53;7.00;;;4.50;;
19026;SDS011;9646;52.034;5.554;2022-09-06T12:40:21;7.38;;;3.80;;
19026;SDS011;9646;52.034;5.554;2022-09-06T12:42:50;7.30;;;5.53;;
19026;SDS011;9646;52.034;5.554;2022-09-06T12:45:17;7.32;;;5.47;;
19026;SDS011;9646;52.034;5.554;2022-09-06T12:47:45;9.18;;;6.00;;
19026;SDS011;9646;52.034;5.554;2022-09-06T12:50:14;11.02;;;5.80;;
19026;SDS011;9646;52.034;5.554;2022-09-06T12:52:43;7.13;;;4.68;;
19026;SDS011;9646;52.034;5.554;2022-09-06T12:55:12;5.95;;;4.10;;
19026;SDS011;9646;52.034;5.554;2022-09-06T12:57:45;6.07;;;4.43;;
19026;SDS011;9646;52.034;5.554;2022-09-06T13:00:14;6.10;;;3.95;;
19026;SDS011;9646;52.034;5.554;2022-09-06T13:02:43;7.32;;;3.40;;
19026;SDS011;9646;52.034;5.554;2022-09-06T13:05:12;3.08;;;2.70;;
19026;SDS011;9646;52.034;5.554;2022-09-06T13:07:41;8.88;;;6.07;;
19026;SDS011;9646;52.034;5.554;2022-09-06T13:10:10;8.45;;;3.88;;
19026;SDS011;9646;52.034;5.554;2022-09-06T13:12:40;5.43;;;3.15;;
19026;SDS011;9646;52.034;5.554;2022-09-06T13:15:10;6.25;;;4.72;;
19026;SDS011;9646;52.034;5.554;2022-09-06T13:17:41;5.75;;;4.85;;
19026;SDS011;9646;52.034;5.554;2022-09-06T13:20:09;6.93;;;4.35;;
19026;SDS011;9646;52.034;5.554;2022-09-06T13:22:37;6.60;;;3.13;;
19026;SDS011;9646;52.034;5.554;2022-09-06T13:25:05;4.32;;;2.88;;
19026;SDS011;9646;52.034;5.554;2022-09-06T13:27:40;5.50;;;3.70;;
19026;SDS011;9646;52.034;5.554;2022-09-06T13:30:19;3.88;;;2.58;;
19026;SDS011;9646;52.034;5.554;2022-09-06T13:32:56;7.20;;;4.53;;
19026;SDS011;9646;52.034;5.554;2022-09-06T13:35:23;2.72;;;2.35;;
19026;SDS011;9646;52.034;5.554;2022-09-06T13:37:52;4.45;;;2.63;;
19026;SDS011;9646;52.034;5.554;2022-09-06T13:43:01;2.95;;;2.38;;
19026;SDS011;9646;52.034;5.554;2022-09-06T13:45:29;4.78;;;3.03;;
19026;SDS011;9646;52.034;5.554;2022-09-06T13:47:59;6.97;;;2.72;;
19026;SDS011;9646;52.034;5.554;2022-09-06T13:50:26;4.28;;;3.33;;
19026;SDS011;9646;52.034;5.554;2022-09-06T13:52:53;4.40;;;2.50;;
19026;SDS011;9646;52.034;5.554;2022-09-06T13:55:21;6.30;;;2.00;;
19026;SDS011;9646;52.034;5.554;2022-09-06T13:57:49;4.72;;;1.80;;
19026;SDS011;9646;52.034;5.554;2022-09-06T14:00:16;3.88;;;1.73;;
19026;SDS011;9646;52.034;5.554;2022-09-06T14:02:43;7.18;;;2.30;;
19026;SDS011;9646;52.034;5.554;2022-09-06T14:05:13;4.60;;;1.95;;
19026;SDS011;9646;52.034;5.554;2022-09-06T14:07:40;4.47;;;2.33;;
19026;SDS011;9646;52.034;5.554;2022-09-06T14:10:08;4.75;;;2.00;;
19026;SDS011;9646;52.034;5.554;2022-09-06T14:12:35;4.47;;;2.10;;
19026;SDS011;9646;52.034;5.554;2022-09-06T14:15:02;2.35;;;1.50;;
19026;SDS011;9646;52.034;5.554;2022-09-06T14:17:30;4.43;;;1.73;;
19026;SDS011;9646;52.034;5.554;2022-09-06T14:19:57;3.80;;;1.88;;
19026;SDS011;9646;52.034;5.554;2022-09-06T14:22:26;2.85;;;1.70;;
19026;SDS011;9646;52.034;5.554;2022-09-06T14:24:53;3.53;;;2.00;;
19026;SDS011;9646;52.034;5.554;2022-09-06T14:27:21;3.00;;;1.80;;
19026;SDS011;9646;52.034;5.554;2022-09-06T14:29:48;4.22;;;2.10;;
19026;SDS011;9646;52.034;5.554;2022-09-06T14:32:15;2.10;;;1.60;;
19026;SDS011;9646;52.034;5.554;2022-09-06T14:34:44;3.60;;;2.00;;
19026;SDS011;9646;52.034;5.554;2022-09-06T14:37:11;6.07;;;2.33;;
19026;SDS011;9646;52.034;5.554;2022-09-06T14:39:39;5.03;;;2.15;;
19026;SDS011;9646;52.034;5.554;2022-09-06T14:42:06;3.58;;;2.13;;
19026;SDS011;9646;52.034;5.554;2022-09-06T14:44:33;5.07;;;2.03;;
19026;SDS011;9646;52.034;5.554;2022-09-06T14:47:00;4.43;;;1.95;;
19026;SDS011;9646;52.034;5.554;2022-09-06T14:49:27;3.35;;;2.13;;
19026;SDS011;9646;52.034;5.554;2022-09-06T14:51:54;3.40;;;2.03;;
19026;SDS011;9646;52.034;5.554;2022-09-06T14:54:21;4.68;;;1.63;;
19026;SDS011;9646;52.034;5.554;2022-09-06T14:56:50;5.07;;;2.30;;
19026;SDS011;9646;52.034;5.554;2022-09-06T14:59:17;3.67;;;1.80;;
19026;SDS011;9646;52.034;5.554;2022-09-06T15:01:44;5.28;;;1.83;;
19026;SDS011;9646;52.034;5.554;2022-09-06T15:04:11;3.65;;;2.25;;
19026;SDS011;9646;52.034;5.554;2022-09-06T15:06:38;4.22;;;2.17;;
19026;SDS011;9646;52.034;5.554;2022-09-06T15:09:10;5.97;;;2.47;;
19026;SDS011;9646;52.034;5.554;2022-09-06T15:11:38;3.40;;;1.60;;
19026;SDS011;9646;52.034;5.554;2022-09-06T15:14:07;3.78;;;2.00;;
19026;SDS011;9646;52.034;5.554;2022-09-06T15:16:34;3.70;;;1.80;;
19026;SDS011;9646;52.034;5.554;2022-09-06T15:19:01;2.78;;;1.60;;
19026;SDS011;9646;52.034;5.554;2022-09-06T15:21:29;4.07;;;2.63;;
19026;SDS011;9646;52.034;5.554;2022-09-06T15:23:56;4.80;;;2.05;;